createdAt,value
2023-05-06T00:01:27.296Z,13.60
2023-05-06T00:03:57.677Z,13.60
2023-05-06T00:06:25.478Z,13.60
2023-05-06T00:08:53.689Z,13.60
2023-05-06T00:11:21.614Z,13.60
2023-05-06T00:13:48.786Z,13.60
2023-05-06T00:16:16.100Z,13.60
2023-05-06T00:18:43.815Z,13.60
2023-05-06T00:21:11.258Z,13.50
2023-05-06T00:23:38.953Z,13.60
2023-05-06T00:26:05.986Z,13.60
2023-05-06T00:28:34.300Z,13.50
2023-05-06T00:31:01.801Z,13.50
2023-05-06T00:33:29.854Z,13.50
2023-05-06T00:35:57.914Z,13.50
2023-05-06T00:38:26.100Z,13.50
2023-05-06T00:40:54.294Z,13.40
2023-05-06T00:43:22.363Z,13.40
2023-05-06T00:45:49.940Z,13.40
2023-05-06T00:48:18.076Z,13.30
2023-05-06T00:50:46.032Z,13.30
2023-05-06T00:53:14.241Z,13.30
2023-05-06T00:55:42.153Z,13.30
2023-05-06T00:58:12.226Z,13.30
2023-05-06T01:00:40.668Z,13.30
2023-05-06T01:03:09.119Z,13.30
2023-05-06T01:05:54.027Z,13.30
2023-05-06T01:08:35.849Z,13.30
2023-05-06T01:11:10.070Z,13.30
2023-05-06T01:13:48.862Z,13.30
2023-05-06T01:16:20.755Z,13.30
2023-05-06T01:18:51.328Z,13.30
2023-05-06T01:21:20.199Z,13.30
2023-05-06T01:23:58.502Z,13.30
2023-05-06T01:26:26.888Z,13.30
2023-05-06T01:28:55.326Z,13.30
2023-05-06T01:31:44.383Z,13.20
2023-05-06T01:34:45.245Z,13.20
2023-05-06T01:37:27.650Z,13.20
2023-05-06T01:39:57.572Z,13.30
2023-05-06T01:42:29.525Z,13.20
2023-05-06T01:44:57.362Z,13.20
2023-05-06T01:47:25.644Z,13.20
2023-05-06T01:49:53.153Z,13.10
2023-05-06T01:52:21.933Z,13.10
2023-05-06T01:54:50.466Z,13.10
2023-05-06T01:57:17.790Z,13.10
2023-05-06T01:59:47.056Z,13.10
2023-05-06T02:02:17.641Z,13.00
2023-05-06T02:04:45.568Z,13.00
2023-05-06T02:07:12.851Z,13.00
2023-05-06T02:09:40.259Z,12.90
2023-05-06T02:12:07.764Z,12.90
2023-05-06T02:14:35.680Z,12.90
2023-05-06T02:17:07.322Z,12.90
2023-05-06T02:19:35.380Z,12.80
2023-05-06T02:22:03.107Z,12.80
2023-05-06T02:24:30.711Z,12.80
2023-05-06T02:26:57.671Z,12.80
2023-05-06T02:29:25.178Z,12.80
2023-05-06T02:31:52.594Z,12.70
2023-05-06T02:34:20.387Z,12.70
2023-05-06T02:36:47.921Z,12.70
2023-05-06T02:39:16.142Z,12.70
2023-05-06T02:41:43.283Z,12.60
2023-05-06T02:44:10.882Z,12.50
2023-05-06T02:46:38.358Z,12.40
2023-05-06T02:49:06.121Z,12.40
2023-05-06T02:51:33.701Z,12.40
2023-05-06T02:54:01.306Z,12.40
2023-05-06T02:56:29.214Z,12.50
2023-05-06T02:58:56.139Z,12.50
2023-05-06T03:01:23.835Z,12.50
2023-05-06T03:03:52.556Z,12.50
2023-05-06T03:06:19.708Z,12.50
2023-05-06T03:08:47.383Z,12.50
2023-05-06T03:11:14.852Z,12.50
2023-05-06T03:13:43.093Z,12.50
2023-05-06T03:16:14.608Z,12.50
2023-05-06T03:18:41.857Z,12.50
2023-05-06T03:21:09.646Z,12.50
2023-05-06T03:23:37.519Z,12.50
2023-05-06T03:26:05.268Z,12.40
2023-05-06T03:28:32.709Z,12.40
2023-05-06T03:31:00.191Z,12.40
2023-05-06T03:33:28.038Z,12.40
2023-05-06T03:35:55.522Z,12.40
2023-05-06T03:38:22.920Z,12.40
2023-05-06T03:40:50.535Z,12.30
2023-05-06T03:43:18.504Z,12.30
2023-05-06T03:45:46.687Z,12.30
2023-05-06T03:48:14.452Z,12.30
2023-05-06T03:50:42.439Z,12.20
2023-05-06T03:53:10.515Z,12.20
2023-05-06T03:55:38.396Z,12.20
2023-05-06T03:58:06.233Z,12.20
2023-05-06T04:00:34.058Z,12.20
2023-05-06T04:03:01.599Z,12.20
2023-05-06T04:05:29.242Z,12.10
2023-05-06T04:07:56.258Z,12.10
2023-05-06T04:10:23.847Z,12.10
2023-05-06T04:12:52.258Z,12.00
2023-05-06T04:15:20.584Z,12.00
2023-05-06T04:17:49.525Z,12.00
2023-05-06T04:20:17.048Z,12.00
2023-05-06T04:22:43.763Z,12.00
2023-05-06T04:25:12.672Z,11.90
2023-05-06T04:27:41.060Z,11.90
2023-05-06T04:30:09.999Z,12.00
2023-05-06T04:32:39.124Z,12.00
2023-05-06T04:35:07.793Z,12.10
2023-05-06T04:37:35.774Z,12.10
2023-05-06T04:40:04.632Z,12.10
2023-05-06T04:42:32.345Z,12.20
2023-05-06T04:45:00.019Z,12.20
2023-05-06T04:47:27.106Z,12.20
2023-05-06T04:49:55.011Z,12.20
2023-05-06T04:52:22.098Z,12.20
2023-05-06T04:54:49.740Z,12.20
2023-05-06T04:57:16.558Z,12.10
2023-05-06T04:59:44.247Z,12.10
2023-05-06T05:02:12.301Z,12.10
2023-05-06T05:04:40.942Z,12.10
2023-05-06T05:07:08.766Z,12.10
2023-05-06T05:09:36.882Z,12.10
2023-05-06T05:12:04.766Z,12.20
2023-05-06T05:14:32.664Z,12.20
2023-05-06T05:16:59.422Z,12.20
2023-05-06T05:19:27.131Z,12.20
2023-05-06T05:21:55.171Z,12.20
2023-05-06T05:24:23.356Z,12.20
2023-05-06T05:26:50.848Z,12.10
2023-05-06T05:29:18.206Z,12.00
2023-05-06T05:31:46.314Z,11.90
2023-05-06T05:34:14.044Z,11.90
2023-05-06T05:36:41.076Z,11.90
2023-05-06T05:39:08.186Z,11.90
2023-05-06T05:41:36.236Z,11.90
2023-05-06T05:44:03.679Z,12.00
2023-05-06T05:46:31.170Z,12.00
2023-05-06T05:48:58.758Z,12.10
2023-05-06T05:51:25.590Z,12.10
2023-05-06T05:53:53.623Z,12.10
2023-05-06T05:56:21.449Z,12.30
2023-05-06T05:58:48.667Z,12.20
2023-05-06T06:01:16.132Z,12.30
2023-05-06T06:03:44.589Z,12.40
2023-05-06T06:06:15.389Z,12.40
2023-05-06T06:08:42.976Z,12.50
2023-05-06T06:11:10.732Z,12.60
2023-05-06T06:13:37.522Z,12.70
2023-05-06T06:16:06.092Z,12.70
2023-05-06T06:18:33.666Z,12.70
2023-05-06T06:21:01.119Z,12.80
2023-05-06T06:23:29.034Z,12.90
2023-05-06T06:25:55.822Z,12.90
2023-05-06T06:28:22.969Z,13.00
2023-05-06T06:30:50.743Z,13.10
2023-05-06T06:33:18.234Z,13.20
2023-05-06T06:35:46.436Z,13.30
2023-05-06T06:38:13.171Z,13.40
2023-05-06T06:40:40.604Z,13.40
2023-05-06T06:43:07.370Z,13.50
2023-05-06T06:45:34.636Z,13.50
2023-05-06T06:48:01.968Z,13.70
2023-05-06T06:50:29.794Z,13.70
2023-05-06T06:52:56.601Z,13.80
2023-05-06T06:55:23.933Z,13.90
2023-05-06T06:57:52.573Z,14.00
2023-05-06T07:00:20.342Z,14.10
2023-05-06T07:02:49.160Z,14.20
2023-05-06T07:05:22.764Z,14.30
2023-05-06T07:07:50.483Z,14.40
2023-05-06T07:10:17.948Z,14.40
2023-05-06T07:12:46.140Z,14.60
2023-05-06T07:15:13.666Z,14.70
2023-05-06T07:17:40.638Z,14.70
2023-05-06T07:20:08.841Z,14.70
2023-05-06T07:22:36.257Z,14.80
2023-05-06T07:25:04.024Z,14.90
2023-05-06T07:27:31.765Z,14.90
2023-05-06T07:29:58.630Z,15.10
2023-05-06T07:32:26.075Z,15.20
2023-05-06T07:34:53.336Z,15.30
2023-05-06T07:37:20.914Z,15.30
2023-05-06T07:39:47.680Z,15.50
2023-05-06T07:42:15.850Z,15.70
2023-05-06T07:44:43.288Z,16.00
2023-05-06T07:47:10.973Z,16.30
2023-05-06T07:49:38.481Z,16.50
2023-05-06T07:52:06.257Z,16.70
2023-05-06T07:54:33.699Z,16.70
2023-05-06T07:57:00.972Z,16.80
2023-05-06T07:59:28.755Z,16.80
2023-05-06T08:01:55.810Z,16.90
2023-05-06T08:04:24.410Z,17.00
2023-05-06T08:06:51.715Z,17.00
2023-05-06T08:09:22.911Z,17.00
2023-05-06T08:11:50.960Z,17.00
2023-05-06T08:14:18.689Z,16.90
2023-05-06T08:16:45.903Z,17.00
2023-05-06T08:19:13.309Z,17.10
2023-05-06T08:21:41.650Z,17.20
2023-05-06T08:24:11.000Z,17.30
2023-05-06T08:26:38.615Z,17.40
2023-05-06T08:29:06.769Z,17.40
2023-05-06T08:31:34.909Z,17.50
2023-05-06T08:34:03.862Z,17.60
2023-05-06T08:36:32.330Z,17.70
2023-05-06T08:39:00.248Z,17.80
2023-05-06T08:41:31.414Z,18.00
2023-05-06T08:44:01.333Z,18.30
2023-05-06T08:46:31.267Z,18.50
2023-05-06T08:48:59.608Z,18.80
2023-05-06T08:51:32.003Z,19.00
2023-05-06T08:54:03.537Z,18.90
2023-05-06T08:56:33.272Z,18.70
2023-05-06T08:59:01.807Z,18.70
2023-05-06T09:01:29.639Z,18.80
2023-05-06T09:03:58.417Z,18.90
2023-05-06T09:06:26.174Z,19.00
2023-05-06T09:08:53.066Z,19.10
2023-05-06T09:11:24.507Z,19.10
2023-05-06T09:14:06.897Z,19.20
2023-05-06T09:16:34.467Z,19.20
2023-05-06T09:19:01.859Z,19.40
2023-05-06T09:21:36.194Z,19.40
2023-05-06T09:24:05.376Z,19.20
2023-05-06T09:26:34.371Z,19.30
2023-05-06T09:29:05.303Z,19.30
2023-05-06T09:31:36.239Z,19.40
2023-05-06T09:34:02.950Z,19.50
2023-05-06T09:36:30.063Z,19.60
2023-05-06T09:38:58.059Z,19.70
2023-05-06T09:41:25.802Z,19.80
2023-05-06T09:43:57.019Z,19.80
2023-05-06T09:46:28.138Z,19.70
2023-05-06T09:49:00.063Z,19.90
2023-05-06T09:51:29.305Z,20.00
2023-05-06T09:53:57.190Z,20.10
2023-05-06T09:56:25.009Z,20.10
2023-05-06T09:58:54.449Z,20.20
2023-05-06T10:01:32.855Z,20.30
2023-05-06T10:04:08.078Z,20.30
2023-05-06T10:06:36.919Z,20.30
2023-05-06T10:09:06.179Z,20.40
2023-05-06T10:11:33.227Z,20.50
2023-05-06T10:14:01.381Z,20.70
2023-05-06T10:16:29.245Z,20.70
2023-05-06T10:18:56.600Z,20.70
2023-05-06T10:21:27.774Z,20.70
2023-05-06T10:24:01.474Z,20.70
2023-05-06T10:26:31.636Z,20.90
2023-05-06T10:29:02.360Z,20.90
2023-05-06T10:31:30.842Z,21.10
2023-05-06T10:34:03.013Z,21.20
2023-05-06T10:36:33.623Z,21.30
2023-05-06T10:39:03.286Z,21.50
2023-05-06T10:41:31.023Z,21.50
2023-05-06T10:43:59.251Z,21.40
2023-05-06T10:46:29.429Z,21.30
2023-05-06T10:49:11.296Z,21.30
2023-05-06T10:51:39.135Z,21.30
2023-05-06T10:54:18.756Z,21.30
2023-05-06T10:56:48.259Z,21.30
2023-05-06T10:59:15.735Z,21.50
2023-05-06T11:01:44.082Z,21.60
2023-05-06T11:04:19.754Z,21.60
2023-05-06T11:06:48.801Z,21.80
2023-05-06T11:09:17.959Z,22.10
2023-05-06T11:11:51.945Z,22.30
2023-05-06T11:14:38.352Z,22.40
2023-05-06T11:17:07.077Z,22.30
2023-05-06T11:19:38.008Z,22.40
2023-05-06T11:22:06.777Z,22.50
2023-05-06T11:24:42.072Z,22.50
2023-05-06T11:27:10.388Z,22.50
2023-05-06T11:29:37.950Z,22.40
2023-05-06T11:32:07.716Z,22.50
2023-05-06T11:34:35.470Z,22.40
2023-05-06T11:37:04.421Z,22.50
2023-05-06T11:39:40.516Z,22.70
2023-05-06T11:42:08.979Z,22.80
2023-05-06T11:44:37.954Z,22.70
2023-05-06T11:47:06.425Z,22.70
2023-05-06T11:49:37.220Z,22.70
2023-05-06T11:52:04.773Z,22.60
2023-05-06T11:54:41.486Z,22.40
2023-05-06T11:57:09.027Z,22.20
2023-05-06T11:59:40.566Z,22.20
2023-05-06T12:02:10.012Z,22.20
2023-05-06T12:04:38.694Z,22.40
2023-05-06T12:07:07.675Z,22.40
2023-05-06T12:09:36.019Z,22.40
2023-05-06T12:12:04.766Z,22.40
2023-05-06T12:14:32.100Z,22.50
2023-05-06T12:16:58.978Z,22.60
2023-05-06T12:19:26.637Z,22.50
2023-05-06T12:21:53.447Z,22.50
2023-05-06T12:24:32.146Z,22.70
2023-05-06T12:26:58.902Z,22.70
2023-05-06T12:29:25.839Z,22.70
2023-05-06T12:32:08.911Z,23.00
2023-05-06T12:34:39.808Z,23.30
2023-05-06T12:37:08.546Z,23.60
2023-05-06T12:39:36.753Z,23.70
2023-05-06T12:42:04.096Z,23.70
2023-05-06T12:44:36.136Z,23.80
2023-05-06T12:47:07.419Z,24.00
2023-05-06T12:49:55.954Z,23.80
2023-05-06T12:52:24.174Z,24.10
2023-05-06T12:54:52.800Z,24.30
2023-05-06T12:57:20.413Z,24.20
2023-05-06T12:59:47.543Z,24.20
2023-05-06T13:02:15.238Z,24.10
2023-05-06T13:04:42.403Z,24.00
2023-05-06T13:07:09.141Z,24.10
2023-05-06T13:09:35.946Z,24.00
2023-05-06T13:12:04.550Z,23.90
2023-05-06T13:14:31.519Z,23.80
2023-05-06T13:17:01.132Z,23.60
2023-05-06T13:19:32.742Z,23.50
2023-05-06T13:22:00.632Z,23.40
2023-05-06T13:24:27.828Z,23.20
2023-05-06T13:26:56.299Z,23.20
2023-05-06T13:29:23.603Z,23.10
2023-05-06T13:31:51.370Z,23.00
2023-05-06T13:34:18.613Z,22.80
2023-05-06T13:36:46.647Z,22.70
2023-05-06T13:39:13.868Z,22.50
2023-05-06T13:41:40.566Z,22.50
2023-05-06T13:44:07.362Z,22.40
2023-05-06T13:46:34.285Z,22.50
2023-05-06T13:49:01.128Z,22.40
2023-05-06T13:51:30.574Z,22.30
2023-05-06T13:53:57.572Z,22.20
2023-05-06T13:56:24.672Z,22.10
2023-05-06T13:58:53.685Z,21.90
2023-05-06T14:01:21.701Z,21.80
2023-05-06T14:03:48.618Z,21.60
2023-05-06T14:06:16.611Z,21.50
2023-05-06T14:08:43.419Z,20.80
2023-05-06T14:11:11.957Z,20.30
2023-05-06T14:13:40.521Z,19.90
2023-05-06T14:16:08.593Z,19.60
2023-05-06T14:18:36.849Z,19.20
2023-05-06T14:21:04.607Z,18.80
2023-05-06T14:23:33.055Z,18.50
2023-05-06T14:26:00.646Z,18.20
2023-05-06T14:28:27.573Z,18.00
2023-05-06T14:31:01.315Z,17.80
2023-05-06T14:33:29.226Z,17.70
2023-05-06T14:35:58.746Z,17.60
2023-05-06T14:38:26.206Z,17.60
2023-05-06T14:40:53.708Z,17.60
2023-05-06T14:43:20.548Z,17.50
2023-05-06T14:45:49.928Z,17.50
2023-05-06T14:48:17.145Z,17.50
2023-05-06T14:50:44.376Z,17.50
2023-05-06T14:53:11.463Z,17.60
2023-05-06T14:55:38.565Z,17.60
2023-05-06T14:58:05.344Z,17.50
2023-05-06T15:00:32.320Z,17.50
2023-05-06T15:02:59.958Z,17.50
2023-05-06T15:05:28.063Z,17.60
2023-05-06T15:07:55.430Z,17.60
2023-05-06T15:10:22.325Z,17.50
2023-05-06T15:12:49.809Z,17.60
2023-05-06T15:15:18.670Z,17.50
2023-05-06T15:17:46.034Z,17.50
2023-05-06T15:20:15.766Z,17.50
2023-05-06T15:22:43.598Z,17.50
2023-05-06T15:25:14.372Z,17.50
2023-05-06T15:27:46.692Z,17.60
2023-05-06T15:30:14.453Z,17.50
2023-05-06T15:32:44.830Z,17.50
2023-05-06T15:35:13.596Z,17.50
2023-05-06T15:37:40.519Z,17.40
2023-05-06T15:40:12.220Z,17.40
2023-05-06T15:42:40.075Z,17.50
2023-05-06T15:45:07.834Z,17.60
2023-05-06T15:47:34.745Z,17.60
2023-05-06T15:50:01.887Z,17.60
2023-05-06T15:52:28.781Z,17.60
2023-05-06T15:54:59.434Z,17.60
2023-05-06T15:57:26.842Z,17.60
2023-05-06T15:59:53.556Z,17.70
2023-05-06T16:02:26.360Z,17.70
2023-05-06T16:04:54.065Z,17.80
2023-05-06T16:07:20.851Z,17.80
2023-05-06T16:09:47.770Z,17.80
2023-05-06T16:12:14.753Z,17.90
2023-05-06T16:14:41.477Z,17.90
2023-05-06T16:17:08.302Z,17.90
2023-05-06T16:19:35.113Z,17.80
2023-05-06T16:22:02.337Z,18.00
2023-05-06T16:24:29.143Z,18.00
2023-05-06T16:26:56.306Z,18.10
2023-05-06T16:29:23.397Z,18.30
2023-05-06T16:31:50.260Z,18.40
2023-05-06T16:34:17.059Z,18.40
2023-05-06T16:36:43.897Z,18.50
2023-05-06T16:39:10.610Z,18.50
2023-05-06T16:41:37.442Z,18.50
2023-05-06T16:44:04.317Z,18.50
2023-05-06T16:46:31.123Z,18.50
2023-05-06T16:48:57.864Z,18.50
2023-05-06T16:51:24.821Z,18.50
2023-05-06T16:53:51.565Z,18.50
2023-05-06T16:56:18.559Z,18.50
2023-05-06T16:58:45.300Z,18.50
2023-05-06T17:01:12.066Z,18.50
2023-05-06T17:03:40.373Z,18.50
2023-05-06T17:06:07.828Z,18.40
2023-05-06T17:08:36.238Z,18.40
2023-05-06T17:11:06.769Z,18.40
2023-05-06T17:13:34.477Z,18.30
2023-05-06T17:16:01.260Z,18.30
2023-05-06T17:18:28.109Z,18.30
2023-05-06T17:20:56.721Z,18.30
2023-05-06T17:23:24.044Z,18.20
2023-05-06T17:25:51.180Z,18.10
2023-05-06T17:28:18.912Z,18.00
2023-05-06T17:30:46.445Z,17.90
2023-05-06T17:33:13.218Z,17.80
2023-05-06T17:35:40.198Z,17.70
2023-05-06T17:38:07.706Z,17.70
2023-05-06T17:40:34.532Z,17.70
2023-05-06T17:43:01.577Z,17.70
2023-05-06T17:45:28.705Z,17.60
2023-05-06T17:47:56.492Z,17.60
2023-05-06T17:50:23.423Z,17.60
2023-05-06T17:52:52.319Z,17.60
2023-05-06T17:55:21.492Z,17.60
2023-05-06T17:57:48.731Z,17.60
2023-05-06T18:00:16.960Z,17.60
2023-05-06T18:02:44.648Z,17.60
2023-05-06T18:05:12.054Z,17.50
2023-05-06T18:07:39.467Z,17.40
2023-05-06T18:10:07.190Z,17.40
2023-05-06T18:12:34.072Z,17.40
2023-05-06T18:15:01.371Z,17.50
2023-05-06T18:17:28.208Z,17.50
2023-05-06T18:19:55.010Z,17.50
2023-05-06T18:22:21.753Z,17.50
2023-05-06T18:24:48.585Z,17.40
2023-05-06T18:27:15.323Z,17.40
2023-05-06T18:29:42.094Z,17.40
2023-05-06T18:32:08.962Z,17.40
2023-05-06T18:34:35.807Z,17.40
2023-05-06T18:37:02.624Z,17.40
2023-05-06T18:39:29.421Z,17.30
2023-05-06T18:41:56.155Z,17.30
2023-05-06T18:44:22.907Z,17.40
2023-05-06T18:46:49.726Z,17.40
2023-05-06T18:49:16.562Z,17.40
2023-05-06T18:51:43.303Z,17.40
2023-05-06T18:54:10.048Z,17.30
2023-05-06T18:56:37.434Z,17.30
2023-05-06T18:59:04.246Z,17.40
2023-05-06T19:01:31.096Z,17.30
2023-05-06T19:03:58.055Z,17.30
2023-05-06T19:06:24.927Z,17.30
2023-05-06T19:08:51.761Z,17.30
2023-05-06T19:11:19.112Z,17.30
2023-05-06T19:13:46.329Z,17.30
2023-05-06T19:16:13.946Z,17.30
2023-05-06T19:18:40.861Z,17.30
2023-05-06T19:21:10.922Z,17.30
2023-05-06T19:23:37.638Z,17.30
2023-05-06T19:26:10.270Z,17.30
2023-05-06T19:28:37.781Z,17.40
2023-05-06T19:31:11.550Z,17.30
2023-05-06T19:33:39.227Z,17.30
2023-05-06T19:36:06.957Z,17.30
2023-05-06T19:38:34.276Z,17.20
2023-05-06T19:41:01.322Z,17.20
2023-05-06T19:43:28.173Z,17.10
2023-05-06T19:45:55.604Z,17.10
2023-05-06T19:48:23.747Z,17.10
2023-05-06T19:50:51.660Z,17.10
2023-05-06T19:53:18.417Z,17.10
2023-05-06T19:55:45.414Z,17.10
2023-05-06T19:58:14.104Z,17.10
2023-05-06T20:00:40.967Z,17.10
2023-05-06T20:03:09.022Z,17.10
2023-05-06T20:05:36.041Z,17.10
2023-05-06T20:08:03.171Z,17.00
2023-05-06T20:10:30.455Z,17.00
2023-05-06T20:12:58.027Z,16.90
2023-05-06T20:15:26.513Z,16.90
2023-05-06T20:17:53.234Z,16.90
2023-05-06T20:20:20.633Z,16.90
2023-05-06T20:22:47.615Z,16.90
2023-05-06T20:25:18.864Z,16.90
2023-05-06T20:27:46.327Z,16.80
2023-05-06T20:30:13.298Z,16.90
2023-05-06T20:32:40.812Z,16.80
2023-05-06T20:35:08.283Z,16.80
2023-05-06T20:37:36.369Z,16.80
2023-05-06T20:40:04.930Z,16.80
2023-05-06T20:42:32.001Z,16.80
2023-05-06T20:44:59.798Z,16.70
2023-05-06T20:47:27.394Z,16.70
2023-05-06T20:49:54.687Z,16.70
2023-05-06T20:52:21.808Z,16.70
2023-05-06T20:54:48.965Z,16.60
2023-05-06T20:57:17.635Z,16.60
2023-05-06T20:59:44.724Z,16.50
2023-05-06T21:02:11.742Z,16.50
2023-05-06T21:04:38.503Z,16.40
2023-05-06T21:07:05.554Z,16.40
2023-05-06T21:09:32.561Z,16.40
2023-05-06T21:11:59.338Z,16.30
2023-05-06T21:14:26.962Z,16.30
2023-05-06T21:16:53.973Z,16.30
2023-05-06T21:19:21.028Z,16.30
2023-05-06T21:21:48.324Z,16.30
2023-05-06T21:24:15.335Z,16.20
2023-05-06T21:26:42.235Z,16.20
2023-05-06T21:29:09.044Z,16.10
2023-05-06T21:31:35.967Z,16.00
2023-05-06T21:34:04.090Z,16.00
2023-05-06T21:36:31.194Z,16.00
2023-05-06T21:39:08.709Z,16.00
2023-05-06T21:41:36.317Z,15.90
2023-05-06T21:44:07.954Z,15.90
2023-05-06T21:46:35.212Z,15.80
2023-05-06T21:49:02.040Z,15.80
2023-05-06T21:51:32.277Z,15.80
2023-05-06T21:53:59.141Z,15.80
2023-05-06T21:56:25.850Z,15.70
2023-05-06T21:58:53.445Z,15.70
2023-05-06T22:01:20.307Z,15.70
2023-05-06T22:03:48.278Z,15.70
2023-05-06T22:06:15.691Z,15.70
2023-05-06T22:08:42.753Z,15.70
2023-05-06T22:11:09.560Z,15.60
2023-05-06T22:13:36.482Z,15.60
2023-05-06T22:16:04.078Z,15.60
2023-05-06T22:18:31.756Z,15.60
2023-05-06T22:20:58.652Z,15.60
2023-05-06T22:23:25.989Z,15.60
2023-05-06T22:25:52.654Z,15.60
2023-05-06T22:28:19.834Z,15.50
2023-05-06T22:30:46.684Z,15.60
2023-05-06T22:33:13.491Z,15.60
2023-05-06T22:35:40.373Z,15.60
2023-05-06T22:38:07.128Z,15.60
2023-05-06T22:40:33.994Z,15.60
2023-05-06T22:43:00.708Z,15.70
2023-05-06T22:45:27.440Z,15.70
2023-05-06T22:47:54.202Z,15.70
2023-05-06T22:50:21.174Z,15.80
2023-05-06T22:52:47.886Z,15.80
2023-05-06T22:55:16.006Z,15.80
2023-05-06T22:57:42.767Z,15.80
2023-05-06T23:00:12.428Z,15.80
2023-05-06T23:02:39.848Z,15.80
2023-05-06T23:05:06.780Z,15.80
2023-05-06T23:07:33.537Z,15.80
2023-05-06T23:10:00.611Z,15.80
2023-05-06T23:12:32.127Z,15.80
2023-05-06T23:15:02.150Z,15.90
2023-05-06T23:17:29.157Z,15.90
2023-05-06T23:19:56.620Z,15.90
2023-05-06T23:22:24.044Z,16.00
2023-05-06T23:24:51.738Z,16.00
2023-05-06T23:27:21.347Z,15.90
2023-05-06T23:29:51.814Z,15.90
2023-05-06T23:32:21.759Z,15.90
2023-05-06T23:34:50.176Z,16.00
2023-05-06T23:37:17.690Z,16.00
2023-05-06T23:39:45.680Z,16.00
2023-05-06T23:42:12.655Z,16.00
2023-05-06T23:44:40.132Z,15.90
2023-05-06T23:47:07.552Z,15.90
2023-05-06T23:49:36.223Z,15.90
2023-05-06T23:52:04.463Z,15.90
2023-05-06T23:54:31.937Z,15.90
2023-05-06T23:56:59.043Z,15.90
2023-05-06T23:59:26.343Z,15.90
